createdAt,value
2019-01-28T00:00:38.820Z,21.55
2019-01-28T00:03:08.540Z,21.56
2019-01-28T00:05:36.976Z,21.55
2019-01-28T00:08:05.431Z,21.54
2019-01-28T00:10:33.808Z,21.54
2019-01-28T00:13:02.191Z,21.51
2019-01-28T00:15:30.578Z,21.52
2019-01-28T00:17:58.950Z,21.52
2019-01-28T00:20:28.151Z,21.51
2019-01-28T00:22:56.522Z,21.50
2019-01-28T00:25:24.914Z,21.48
2019-01-28T00:27:53.284Z,21.48
2019-01-28T00:30:21.669Z,21.48
2019-01-28T00:32:50.048Z,21.47
2019-01-28T00:35:18.439Z,21.45
2019-01-28T00:37:47.457Z,21.45
2019-01-28T00:40:15.986Z,21.44
2019-01-28T00:42:44.377Z,21.44
2019-01-28T00:45:13.898Z,21.43
2019-01-28T00:47:42.274Z,21.43
2019-01-28T00:50:12.296Z,21.43
2019-01-28T00:52:40.675Z,21.41
2019-01-28T00:55:11.311Z,21.41
2019-01-28T00:57:39.963Z,21.40
2019-01-28T01:00:17.104Z,21.38
2019-01-28T01:02:45.483Z,21.37
2019-01-28T01:05:13.873Z,21.37
2019-01-28T01:07:42.258Z,21.37
2019-01-28T01:10:12.087Z,21.35
2019-01-28T01:12:40.462Z,21.34
2019-01-28T01:15:14.096Z,21.33
2019-01-28T01:17:42.543Z,21.31
2019-01-28T01:20:14.203Z,21.32
2019-01-28T01:22:42.589Z,21.32
2019-01-28T01:25:11.415Z,21.30
2019-01-28T01:27:39.792Z,21.30
2019-01-28T01:30:11.306Z,21.29
2019-01-28T01:32:39.692Z,21.29
2019-01-28T01:35:08.172Z,21.28
2019-01-28T01:37:36.552Z,21.27
2019-01-28T01:40:08.493Z,21.26
2019-01-28T01:42:36.869Z,21.26
2019-01-28T01:45:08.559Z,21.24
2019-01-28T01:47:36.943Z,21.23
2019-01-28T01:50:08.481Z,21.23
2019-01-28T01:52:36.866Z,21.23
2019-01-28T01:55:08.136Z,21.21
2019-01-28T01:57:36.512Z,21.21
2019-01-28T02:00:10.735Z,21.21
2019-01-28T02:02:39.114Z,21.19
2019-01-28T02:05:07.955Z,21.18
2019-01-28T02:07:36.326Z,21.17
2019-01-28T02:10:08.095Z,21.15
2019-01-28T02:12:36.472Z,21.14
2019-01-28T02:15:07.944Z,21.15
2019-01-28T02:17:36.324Z,21.12
2019-01-28T02:20:07.657Z,21.13
2019-01-28T02:22:36.033Z,21.12
2019-01-28T02:25:06.714Z,21.11
2019-01-28T02:27:35.112Z,21.10
2019-01-28T02:30:05.439Z,21.09
2019-01-28T02:32:33.814Z,21.08
2019-01-28T02:35:02.194Z,21.07
2019-01-28T02:37:30.582Z,21.07
2019-01-28T02:39:59.332Z,21.07
2019-01-28T02:42:27.726Z,21.06
2019-01-28T02:44:56.097Z,21.05
2019-01-28T02:47:24.492Z,21.04
2019-01-28T02:49:52.855Z,21.02
2019-01-28T02:52:21.239Z,21.00
2019-01-28T02:54:49.617Z,21.01
2019-01-28T02:57:17.995Z,20.99
2019-01-28T02:59:46.370Z,21.00
2019-01-28T03:02:14.741Z,20.98
2019-01-28T03:04:43.118Z,20.97
2019-01-28T03:07:11.497Z,20.96
2019-01-28T03:09:39.866Z,20.96
2019-01-28T03:12:08.245Z,20.95
2019-01-28T03:14:36.618Z,20.94
2019-01-28T03:17:08.263Z,20.93
2019-01-28T03:19:36.702Z,20.93
2019-01-28T03:22:05.149Z,20.90
2019-01-28T03:24:33.514Z,20.90
2019-01-28T03:27:01.890Z,20.88
2019-01-28T03:29:30.257Z,20.87
2019-01-28T03:31:58.653Z,20.87
2019-01-28T03:34:27.012Z,20.86
2019-01-28T03:36:55.382Z,20.84
2019-01-28T03:39:23.758Z,20.82
2019-01-28T03:41:52.142Z,20.82
2019-01-28T03:44:20.504Z,20.81
2019-01-28T03:46:48.895Z,20.80
2019-01-28T03:49:17.493Z,20.78
2019-01-28T03:51:47.650Z,20.77
2019-01-28T03:54:16.123Z,20.78
2019-01-28T03:56:44.505Z,20.76
2019-01-28T03:59:12.871Z,20.76
2019-01-28T04:01:41.240Z,20.76
2019-01-28T04:04:09.606Z,20.74
2019-01-28T04:06:37.994Z,20.75
2019-01-28T04:09:08.214Z,20.73
2019-01-28T04:11:36.588Z,20.70
2019-01-28T04:14:05.891Z,20.71
2019-01-28T04:16:34.260Z,20.69
2019-01-28T04:19:02.639Z,20.70
2019-01-28T04:21:31.028Z,20.71
2019-01-28T04:24:00.211Z,20.68
2019-01-28T04:26:28.586Z,20.68
2019-01-28T04:28:56.985Z,20.67
2019-01-28T04:31:25.340Z,20.67
2019-01-28T04:33:53.709Z,20.67
2019-01-28T04:36:22.084Z,20.57
2019-01-28T04:38:50.456Z,20.51
2019-01-28T04:41:18.842Z,20.48
2019-01-28T04:43:47.218Z,20.47
2019-01-28T04:46:15.593Z,20.45
2019-01-28T04:48:43.976Z,20.41
2019-01-28T04:51:12.328Z,20.41
2019-01-28T04:53:40.701Z,20.41
2019-01-28T04:56:09.077Z,20.38
2019-01-28T04:58:37.450Z,20.38
2019-01-28T05:01:05.825Z,20.37
2019-01-28T05:03:34.218Z,20.36
2019-01-28T05:06:02.595Z,20.36
2019-01-28T05:08:30.953Z,20.36
2019-01-28T05:10:59.319Z,20.35
2019-01-28T05:13:27.704Z,20.34
2019-01-28T05:15:56.082Z,20.33
2019-01-28T05:18:24.469Z,20.33
2019-01-28T05:20:52.830Z,20.33
2019-01-28T05:23:21.240Z,20.32
2019-01-28T05:25:49.583Z,20.31
2019-01-28T05:28:17.968Z,20.29
2019-01-28T05:30:46.337Z,20.29
2019-01-28T05:33:14.732Z,20.28
2019-01-28T05:35:43.079Z,20.27
2019-01-28T05:38:11.453Z,20.27
2019-01-28T05:40:39.822Z,20.27
2019-01-28T05:43:08.218Z,20.24
2019-01-28T05:45:36.585Z,20.24
2019-01-28T05:48:04.969Z,20.24
2019-01-28T05:50:33.340Z,20.23
2019-01-28T05:53:01.727Z,20.23
2019-01-28T05:55:30.996Z,20.22
2019-01-28T06:00:27.132Z,20.25
2019-01-28T06:02:55.589Z,20.19
2019-01-28T06:05:23.967Z,20.18
2019-01-28T06:07:52.357Z,20.18
2019-01-28T06:10:20.789Z,20.18
2019-01-28T06:12:49.162Z,20.17
2019-01-28T06:15:19.172Z,20.17
2019-01-28T06:17:47.782Z,20.16
2019-01-28T06:20:18.599Z,20.15
2019-01-28T06:22:47.426Z,20.15
2019-01-28T06:25:16.137Z,20.14
2019-01-28T06:27:44.519Z,20.14
2019-01-28T06:30:26.743Z,20.13
2019-01-28T06:32:55.199Z,20.12
2019-01-28T06:35:23.634Z,20.12
2019-01-28T06:37:52.354Z,20.10
2019-01-28T06:40:23.638Z,20.10
2019-01-28T06:42:52.018Z,20.11
2019-01-28T06:45:20.384Z,20.09
2019-01-28T06:47:48.769Z,20.08
2019-01-28T06:50:19.575Z,20.07
2019-01-28T06:52:47.961Z,20.06
2019-01-28T06:55:16.601Z,20.05
2019-01-28T06:57:44.985Z,20.05
2019-01-28T07:00:24.954Z,20.05
2019-01-28T07:02:53.882Z,20.03
2019-01-28T07:05:22.328Z,20.04
2019-01-28T07:07:50.716Z,20.02
2019-01-28T07:10:19.150Z,20.01
2019-01-28T07:12:47.526Z,20.01
2019-01-28T07:15:21.488Z,20.00
2019-01-28T07:17:54.667Z,19.98
2019-01-28T07:20:26.656Z,19.98
2019-01-28T07:22:55.314Z,19.96
2019-01-28T07:25:23.685Z,19.95
2019-01-28T07:27:52.090Z,19.95
2019-01-28T07:30:32.965Z,19.93
2019-01-28T07:33:01.788Z,19.91
2019-01-28T07:35:35.462Z,19.90
2019-01-28T07:38:04.579Z,19.90
2019-01-28T07:40:33.027Z,19.87
2019-01-28T07:43:01.899Z,19.87
2019-01-28T07:45:34.820Z,19.86
2019-01-28T07:48:03.446Z,19.85
2019-01-28T07:50:32.126Z,19.84
2019-01-28T07:53:00.474Z,19.83
2019-01-28T07:55:28.855Z,19.82
2019-01-28T07:57:58.212Z,19.82
2019-01-28T08:00:31.841Z,19.81
2019-01-28T08:03:00.220Z,19.79
2019-01-28T08:05:28.687Z,19.78
2019-01-28T08:07:57.124Z,19.77
2019-01-28T08:10:25.647Z,19.76
2019-01-28T08:12:54.562Z,19.74
2019-01-28T08:15:25.176Z,19.74
2019-01-28T08:17:53.542Z,19.73
2019-01-28T08:20:22.457Z,19.72
2019-01-28T08:22:50.838Z,19.71
2019-01-28T08:25:20.750Z,19.70
2019-01-28T08:27:49.891Z,19.70
2019-01-28T08:30:31.229Z,19.70
2019-01-28T08:32:59.963Z,19.69
2019-01-28T08:35:30.088Z,19.68
2019-01-28T08:37:58.627Z,19.65
2019-01-28T08:40:27.254Z,19.66
2019-01-28T08:42:56.526Z,19.65
2019-01-28T08:45:24.973Z,19.64
2019-01-28T08:47:53.336Z,19.64
2019-01-28T08:50:26.676Z,19.63
2019-01-28T08:52:55.049Z,19.62
2019-01-28T08:55:25.663Z,19.60
2019-01-28T08:57:56.149Z,19.59
2019-01-28T09:00:33.483Z,19.59
2019-01-28T09:03:04.056Z,19.59
2019-01-28T09:05:32.889Z,19.57
2019-01-28T09:08:01.334Z,19.57
2019-01-28T09:10:31.152Z,19.56
2019-01-28T09:12:59.529Z,19.58
2019-01-28T09:15:28.080Z,19.55
2019-01-28T09:17:56.686Z,19.55
2019-01-28T09:20:29.879Z,19.55
2019-01-28T09:22:58.243Z,19.54
2019-01-28T09:25:26.441Z,19.55
2019-01-28T09:27:55.752Z,19.54
2019-01-28T09:30:26.462Z,19.53
2019-01-28T09:32:54.841Z,19.53
2019-01-28T09:35:23.354Z,19.52
2019-01-28T09:37:51.729Z,19.52
2019-01-28T09:40:23.358Z,19.51
2019-01-28T09:42:51.799Z,19.51
2019-01-28T09:45:22.870Z,19.49
2019-01-28T09:47:51.253Z,19.50
2019-01-28T09:50:20.184Z,19.48
2019-01-28T09:52:50.091Z,19.50
2019-01-28T09:55:18.804Z,19.50
2019-01-28T09:57:47.182Z,19.48
2019-01-28T10:00:20.197Z,19.49
2019-01-28T10:02:48.576Z,19.48
2019-01-28T10:05:17.487Z,19.48
2019-01-28T10:07:45.928Z,19.47
2019-01-28T10:10:19.985Z,19.47
2019-01-28T10:12:48.362Z,19.47
2019-01-28T10:15:28.606Z,19.46
2019-01-28T10:17:56.393Z,19.46
2019-01-28T10:20:33.554Z,19.45
2019-01-28T10:23:01.966Z,19.45
2019-01-28T10:25:30.406Z,19.45
2019-01-28T10:27:58.843Z,19.43
2019-01-28T10:30:41.890Z,19.44
2019-01-28T10:33:11.573Z,19.43
2019-01-28T10:35:40.898Z,19.43
2019-01-28T10:38:09.736Z,19.42
2019-01-28T10:40:40.784Z,19.43
2019-01-28T10:43:09.592Z,19.43
2019-01-28T10:45:42.113Z,19.44
2019-01-28T10:48:10.935Z,19.43
2019-01-28T10:50:40.153Z,19.42
2019-01-28T10:53:08.601Z,19.42
2019-01-28T10:55:37.049Z,19.44
2019-01-28T10:58:05.755Z,19.43
2019-01-28T11:00:36.992Z,19.43
2019-01-28T11:03:06.798Z,19.42
2019-01-28T11:05:36.382Z,19.43
2019-01-28T11:08:05.581Z,19.43
2019-01-28T11:10:34.050Z,19.42
2019-01-28T11:13:02.528Z,19.43
2019-01-28T11:15:31.518Z,19.43
2019-01-28T11:18:05.394Z,19.42
2019-01-28T11:20:33.974Z,19.42
2019-01-28T11:23:02.436Z,19.43
2019-01-28T11:25:33.574Z,19.43
2019-01-28T11:28:01.955Z,19.43
2019-01-28T11:30:44.465Z,19.42
2019-01-28T11:33:13.041Z,19.43
2019-01-28T11:35:42.099Z,19.41
2019-01-28T11:38:10.905Z,19.41
2019-01-28T11:40:40.671Z,19.41
2019-01-28T11:43:09.293Z,19.41
2019-01-28T11:45:41.473Z,19.41
2019-01-28T11:48:10.037Z,19.41
2019-01-28T11:50:41.386Z,19.43
2019-01-28T11:53:09.758Z,19.43
2019-01-28T11:55:38.139Z,19.40
2019-01-28T11:58:06.846Z,19.40
2019-01-28T12:00:48.354Z,19.43
2019-01-28T12:03:16.723Z,19.41
2019-01-28T12:05:51.118Z,19.42
2019-01-28T12:08:20.675Z,19.41
2019-01-28T12:10:49.137Z,19.41
2019-01-28T12:13:17.501Z,19.40
2019-01-28T12:15:45.945Z,19.40
2019-01-28T12:18:15.292Z,19.40
2019-01-28T12:20:44.733Z,19.41
2019-01-28T12:23:13.903Z,19.42
2019-01-28T12:25:42.345Z,19.42
2019-01-28T12:28:10.986Z,19.41
2019-01-28T12:30:39.787Z,19.40
2019-01-28T12:33:08.186Z,19.40
2019-01-28T12:35:36.554Z,19.41
2019-01-28T12:38:05.268Z,19.40
2019-01-28T12:40:34.411Z,19.40
2019-01-28T12:43:02.790Z,19.39
2019-01-28T12:45:31.164Z,19.39
2019-01-28T12:47:59.552Z,19.38
2019-01-28T12:50:28.358Z,19.39
2019-01-28T12:52:56.734Z,19.38
2019-01-28T12:55:28.368Z,19.37
2019-01-28T12:57:56.768Z,19.37
2019-01-28T13:00:36.122Z,19.38
2019-01-28T13:03:05.830Z,19.38
2019-01-28T13:05:34.674Z,19.37
2019-01-28T13:08:03.067Z,19.37
2019-01-28T13:10:31.507Z,19.37
2019-01-28T13:12:59.893Z,19.37
2019-01-28T13:15:33.111Z,19.37
2019-01-28T13:18:01.478Z,19.36
2019-01-28T13:20:30.285Z,19.34
2019-01-28T13:22:58.802Z,19.36
2019-01-28T13:25:32.479Z,19.36
2019-01-28T13:28:00.847Z,19.35
2019-01-28T13:30:35.393Z,19.34
2019-01-28T13:33:07.022Z,19.34
2019-01-28T13:35:35.395Z,19.35
2019-01-28T13:38:03.843Z,19.34
2019-01-28T13:40:33.145Z,19.34
2019-01-28T13:43:02.398Z,19.34
2019-01-28T13:45:30.783Z,19.35
2019-01-28T13:47:59.504Z,19.35
2019-01-28T13:50:28.039Z,19.35
2019-01-28T13:52:56.703Z,19.34
2019-01-28T13:55:25.166Z,19.34
2019-01-28T13:57:53.545Z,19.33
2019-01-28T14:00:30.720Z,19.36
2019-01-28T14:02:59.665Z,19.35
2019-01-28T14:05:28.336Z,19.34
2019-01-28T14:07:57.346Z,19.34
2019-01-28T14:10:28.111Z,19.35
2019-01-28T14:12:56.718Z,19.35
2019-01-28T14:15:36.032Z,19.35
2019-01-28T14:18:06.732Z,19.36
2019-01-28T14:20:37.334Z,19.34
2019-01-28T14:23:06.146Z,19.34
2019-01-28T14:25:35.410Z,19.34
2019-01-28T14:28:05.759Z,19.33
2019-01-28T14:30:44.974Z,19.34
2019-01-28T14:33:13.392Z,19.34
2019-01-28T14:35:42.107Z,19.34
2019-01-28T14:38:11.324Z,19.33
2019-01-28T14:40:40.924Z,19.33
2019-01-28T14:43:09.769Z,19.33
2019-01-28T14:45:38.152Z,19.34
2019-01-28T14:48:07.875Z,19.34
2019-01-28T14:50:37.872Z,19.33
2019-01-28T14:53:06.329Z,19.34
2019-01-28T14:55:35.839Z,19.35
2019-01-28T14:58:05.557Z,19.34
2019-01-28T15:00:38.917Z,19.34
2019-01-28T15:03:07.407Z,19.35
2019-01-28T15:05:36.802Z,19.35
2019-01-28T15:08:06.472Z,19.33
2019-01-28T15:10:35.761Z,19.34
2019-01-28T15:13:04.999Z,19.33
2019-01-28T15:15:38.320Z,19.32
2019-01-28T15:18:08.041Z,19.34
2019-01-28T15:20:36.406Z,19.33
2019-01-28T15:23:05.789Z,19.33
2019-01-28T15:25:34.162Z,19.32
2019-01-28T15:28:02.712Z,19.32
2019-01-28T15:30:32.015Z,19.33
2019-01-28T15:33:00.604Z,19.31
2019-01-28T15:35:28.988Z,19.31
2019-01-28T15:37:57.373Z,19.32
2019-01-28T15:40:32.240Z,19.32
2019-01-28T15:43:00.705Z,19.32
2019-01-28T15:45:31.615Z,19.31
2019-01-28T15:47:59.993Z,19.30
2019-01-28T15:50:28.367Z,19.29
2019-01-28T15:52:56.743Z,19.29
2019-01-28T15:55:33.616Z,19.29
2019-01-28T15:58:02.162Z,19.30
2019-01-28T16:00:33.132Z,19.30
2019-01-28T16:03:02.277Z,19.28
2019-01-28T16:05:30.643Z,19.29
2019-01-28T16:07:59.013Z,19.30
2019-01-28T16:10:28.363Z,19.30
2019-01-28T16:12:56.803Z,19.30
2019-01-28T16:15:33.913Z,19.31
2019-01-28T16:18:02.434Z,19.29
2019-01-28T16:20:30.804Z,19.29
2019-01-28T16:22:59.331Z,19.30
2019-01-28T16:25:27.714Z,19.29
2019-01-28T16:27:56.084Z,19.28
2019-01-28T16:30:26.916Z,19.28
2019-01-28T16:32:55.453Z,19.28
2019-01-28T16:35:24.002Z,19.28
2019-01-28T16:37:54.104Z,19.27
2019-01-28T16:40:27.847Z,19.28
2019-01-28T16:42:57.364Z,19.28
2019-01-28T16:45:26.921Z,19.29
2019-01-28T16:47:56.271Z,19.29
2019-01-28T16:50:32.688Z,19.29
2019-01-28T16:53:01.082Z,19.29
2019-01-28T16:55:29.457Z,19.29
2019-01-28T16:57:58.865Z,19.30
2019-01-28T17:00:29.492Z,19.30
2019-01-28T17:02:57.859Z,19.29
2019-01-28T17:05:26.759Z,19.30
2019-01-28T17:07:55.186Z,19.31
2019-01-28T17:10:24.031Z,19.31
2019-01-28T17:12:52.401Z,19.31
2019-01-28T17:15:24.555Z,19.30
2019-01-28T17:17:52.989Z,19.30
2019-01-28T17:20:35.135Z,19.30
2019-01-28T17:22:59.949Z,19.32
2019-01-28T17:25:34.179Z,19.31
2019-01-28T17:28:02.621Z,19.31
2019-01-28T17:30:35.979Z,19.31
2019-01-28T17:33:05.690Z,19.31
2019-01-28T17:35:34.124Z,19.31
2019-01-28T17:38:02.486Z,19.32
2019-01-28T17:40:32.412Z,19.30
2019-01-28T17:43:00.781Z,19.30
2019-01-28T17:45:29.401Z,19.31
2019-01-28T17:47:58.238Z,19.30
2019-01-28T17:50:27.282Z,19.31
2019-01-28T17:52:55.721Z,19.30
2019-01-28T17:55:24.101Z,19.32
2019-01-28T17:57:52.475Z,19.30
2019-01-28T18:00:30.132Z,19.30
2019-01-28T18:03:00.457Z,19.30
2019-01-28T18:05:30.801Z,19.31
2019-01-28T18:07:59.183Z,19.30
2019-01-28T18:10:30.616Z,19.29
2019-01-28T18:12:58.992Z,19.28
2019-01-28T18:15:28.318Z,19.27
2019-01-28T18:17:56.694Z,19.28
2019-01-28T18:20:25.154Z,19.26
2019-01-28T18:22:53.588Z,19.26
2019-01-28T18:25:34.440Z,19.25
2019-01-28T18:28:03.092Z,19.25
2019-01-28T18:30:44.214Z,19.25
2019-01-28T18:33:12.582Z,19.25
2019-01-28T18:35:40.974Z,19.24
2019-01-28T18:38:09.784Z,19.23
2019-01-28T18:40:38.163Z,19.24
2019-01-28T18:43:07.929Z,19.24
2019-01-28T18:45:36.649Z,19.24
2019-01-28T18:48:06.475Z,19.25
2019-01-28T18:50:38.260Z,19.23
2019-01-28T18:53:07.581Z,19.24
2019-01-28T18:55:35.912Z,19.23
2019-01-28T18:58:04.817Z,19.22
2019-01-28T19:00:34.539Z,19.21
2019-01-28T19:03:02.976Z,19.22
2019-01-28T19:05:49.149Z,19.21
2019-01-28T19:08:30.858Z,19.21
2019-01-28T19:11:09.538Z,19.20
2019-01-28T19:13:57.323Z,19.19
2019-01-28T19:16:30.099Z,19.19
2019-01-28T19:19:02.552Z,19.17
2019-01-28T19:21:47.489Z,19.17
2019-01-28T19:24:15.854Z,19.18
2019-01-28T19:26:44.250Z,19.18
2019-01-28T19:29:12.628Z,19.16
2019-01-28T19:31:41.011Z,19.17
2019-01-28T19:34:09.399Z,19.17
2019-01-28T19:36:37.921Z,19.18
2019-01-28T19:39:08.623Z,19.18
2019-01-28T19:41:38.049Z,19.19
2019-01-28T19:44:06.511Z,19.19
2019-01-28T19:46:34.912Z,19.18
2019-01-28T19:49:03.283Z,19.19
2019-01-28T19:51:31.657Z,19.20
2019-01-28T19:54:00.033Z,19.19
2019-01-28T19:56:28.419Z,19.18
2019-01-28T19:58:57.759Z,19.17
2019-01-28T20:01:26.152Z,19.19
2019-01-28T20:03:54.516Z,19.18
2019-01-28T20:06:22.903Z,19.20
2019-01-28T20:08:51.275Z,19.20
2019-01-28T20:11:19.653Z,19.19
2019-01-28T20:13:48.067Z,19.20
2019-01-28T20:16:16.448Z,19.20
2019-01-28T20:18:44.817Z,19.19
2019-01-28T20:21:13.216Z,19.20
2019-01-28T20:23:41.595Z,19.20
2019-01-28T20:26:09.954Z,19.19
2019-01-28T20:28:38.355Z,19.18
2019-01-28T20:31:06.969Z,19.17
2019-01-28T20:33:35.342Z,19.18
2019-01-28T20:36:03.891Z,19.18
2019-01-28T20:38:32.265Z,19.18
2019-01-28T20:41:00.652Z,19.19
2019-01-28T20:43:29.025Z,19.15
2019-01-28T20:45:57.426Z,19.19
2019-01-28T20:48:25.783Z,19.19
2019-01-28T20:50:54.158Z,19.18
2019-01-28T20:53:22.532Z,19.19
2019-01-28T20:55:50.962Z,19.19
2019-01-28T20:58:19.387Z,19.20
2019-01-28T21:00:47.775Z,19.18
2019-01-28T21:03:16.447Z,19.19
2019-01-28T21:05:44.816Z,19.18
2019-01-28T21:08:13.168Z,19.17
2019-01-28T21:10:41.592Z,19.18
2019-01-28T21:13:10.261Z,19.19
2019-01-28T21:15:44.668Z,19.18
2019-01-28T21:18:13.183Z,19.18
2019-01-28T21:20:41.544Z,19.19
2019-01-28T21:23:09.919Z,19.18
2019-01-28T21:25:38.893Z,19.18
2019-01-28T21:28:07.282Z,19.17
2019-01-28T21:30:36.001Z,19.17
2019-01-28T21:33:04.570Z,19.19
2019-01-28T21:35:37.383Z,19.19
2019-01-28T21:38:07.404Z,19.18
2019-01-28T21:40:35.764Z,19.18
2019-01-28T21:43:04.578Z,19.19
2019-01-28T21:45:32.942Z,19.20
2019-01-28T21:48:01.317Z,19.18
2019-01-28T21:50:29.699Z,19.18
2019-01-28T21:52:58.097Z,19.19
2019-01-28T21:55:26.468Z,19.19
2019-01-28T21:57:54.858Z,19.19
2019-01-28T22:00:23.304Z,19.19
2019-01-28T22:02:51.715Z,19.21
2019-01-28T22:05:20.052Z,19.20
2019-01-28T22:07:48.435Z,19.22
2019-01-28T22:10:16.940Z,19.22
2019-01-28T22:12:45.326Z,19.24
2019-01-28T22:15:18.464Z,19.25
2019-01-28T22:17:46.833Z,19.23
2019-01-28T22:20:15.877Z,19.23
2019-01-28T22:22:44.430Z,19.24
2019-01-28T22:25:17.021Z,19.24
2019-01-28T22:27:45.383Z,19.24
2019-01-28T22:30:19.338Z,19.24
2019-01-28T22:32:47.894Z,19.25
2019-01-28T22:35:16.258Z,19.24
2019-01-28T22:37:44.632Z,19.24
2019-01-28T22:40:15.046Z,19.24
2019-01-28T22:42:43.433Z,19.25
2019-01-28T22:45:14.783Z,19.25
2019-01-28T22:47:43.164Z,19.26
2019-01-28T22:50:16.866Z,19.26
2019-01-28T22:52:45.625Z,19.27
2019-01-28T22:55:16.434Z,19.26
2019-01-28T22:57:44.817Z,19.27
2019-01-28T23:00:20.414Z,19.27
2019-01-28T23:02:48.866Z,19.27
2019-01-28T23:05:17.159Z,19.28
2019-01-28T23:07:45.549Z,19.27
2019-01-28T23:10:13.928Z,19.27
2019-01-28T23:12:42.341Z,19.27
2019-01-28T23:15:11.463Z,19.30
2019-01-28T23:17:39.843Z,19.28
2019-01-28T23:20:09.359Z,19.29
2019-01-28T23:22:37.741Z,19.29
2019-01-28T23:25:06.852Z,19.29
2019-01-28T23:27:35.232Z,19.30
2019-01-28T23:30:04.911Z,19.30
2019-01-28T23:32:33.291Z,19.30
2019-01-28T23:35:01.658Z,19.31
2019-01-28T23:37:30.034Z,19.32
2019-01-28T23:39:58.402Z,19.31
2019-01-28T23:42:26.778Z,19.33
2019-01-28T23:44:55.157Z,19.33
2019-01-28T23:47:23.624Z,19.30
2019-01-28T23:49:52.042Z,19.30
2019-01-28T23:52:25.077Z,19.32
2019-01-28T23:54:50.533Z,19.32
2019-01-28T23:57:18.922Z,19.33
2019-01-28T23:59:47.293Z,19.30
